Time;durP1;ratioP1;P1;durP2;ratioP2;P2;SDS_P1;SDS_P2;PMS_P1;PMS_P2;Temp;Humidity;BMP_temperature;BMP_pressure;BME280_temperature;BME280_humidity;BME280_pressure;Samples;Min_cycle;Max_cycle;Signal;HPM_P1;HPM_P2
2022/06/20 00:00:47;;;;;;;3.70;2.38;;;25.90;96.70;;;;;;4969145;28;20085;-79
2022/06/20 00:03:23;;;;;;;3.42;2.20;;;25.90;96.70;;;;;;4970441;28;20039;-79
2022/06/20 00:05:52;;;;;;;5.25;2.28;;;26.00;96.70;;;;;;4965126;28;20153;-81
2022/06/20 00:08:21;;;;;;;3.55;1.80;;;25.90;96.70;;;;;;4949630;28;20039;-81
2022/06/20 00:10:50;;;;;;;3.35;1.77;;;25.80;96.70;;;;;;4965464;28;20677;-81
2022/06/20 00:13:27;;;;;;;3.80;2.00;;;25.70;96.70;;;;;;4954178;28;20042;-81
2022/06/20 00:15:56;;;;;;;4.28;2.28;;;25.60;96.70;;;;;;4949614;28;20057;-82
2022/06/20 00:18:26;;;;;;;3.53;1.83;;;25.60;96.70;;;;;;4948509;28;20058;-82
2022/06/20 00:20:55;;;;;;;4.80;1.92;;;25.50;96.70;;;;;;4966669;28;20448;-81
2022/06/20 00:23:23;;;;;;;4.40;1.92;;;25.60;96.70;;;;;;4965065;28;20034;-81
2022/06/20 00:25:52;;;;;;;4.55;2.10;;;25.50;96.70;;;;;;4968204;28;20456;-79
2022/06/20 00:28:20;;;;;;;2.45;2.00;;;25.50;96.70;;;;;;4950275;28;20061;-79
2022/06/20 00:30:48;;;;;;;4.32;1.67;;;25.50;96.70;;;;;;4949720;28;20050;-79
2022/06/20 00:33:17;;;;;;;4.15;1.92;;;25.50;96.70;;;;;;4965990;28;20130;-80
2022/06/20 00:35:47;;;;;;;3.10;2.00;;;25.50;96.70;;;;;;4968302;28;20121;-80
2022/06/20 00:38:18;;;;;;;2.40;1.83;;;25.50;96.70;;;;;;4951302;28;20094;-80
2022/06/20 00:40:49;;;;;;;6.15;2.20;;;25.60;96.70;;;;;;4973770;28;20053;-80
2022/06/20 00:43:22;;;;;;;4.18;2.40;;;25.50;96.70;;;;;;4967451;28;20043;-80
2022/06/20 00:45:54;;;;;;;7.28;3.53;;;25.50;96.70;;;;;;4967042;28;20117;-80
2022/06/20 00:48:26;;;;;;;4.50;2.72;;;25.50;96.70;;;;;;4972847;28;20061;-80
2022/06/20 00:51:01;;;;;;;3.75;2.65;;;25.50;96.70;;;;;;4950174;28;20507;-80
2022/06/20 00:53:37;;;;;;;5.90;3.33;;;25.50;96.70;;;;;;4950109;28;20152;-81
2022/06/20 00:56:11;;;;;;;3.90;2.83;;;25.50;96.70;;;;;;4956456;28;20141;-80
2022/06/20 00:58:46;;;;;;;4.80;2.85;;;25.30;96.70;;;;;;4966966;28;20346;-80
2022/06/20 01:01:17;;;;;;;4.53;2.60;;;25.20;96.70;;;;;;4957107;28;20610;-80
2022/06/20 01:03:51;;;;;;;3.15;2.40;;;25.20;96.70;;;;;;4949420;28;20054;-80
2022/06/20 01:06:26;;;;;;;6.65;2.53;;;25.30;96.70;;;;;;4964950;28;20065;-80
2022/06/20 01:08:58;;;;;;;3.95;2.67;;;25.10;96.70;;;;;;4952050;28;20050;-80
2022/06/20 01:11:34;;;;;;;4.32;2.70;;;25.00;96.70;;;;;;4952964;28;20137;-82
2022/06/20 01:14:19;;;;;;;5.13;2.95;;;25.00;96.70;;;;;;4972645;28;20050;-80
2022/06/20 01:16:47;;;;;;;3.40;2.70;;;24.90;96.70;;;;;;4964282;28;20051;-80
2022/06/20 01:19:40;;;;;;;6.80;2.80;;;24.90;96.70;;;;;;4953109;28;20125;-80
2022/06/20 01:22:24;;;;;;;5.03;2.78;;;24.80;96.70;;;;;;4953757;28;20096;-80
2022/06/20 01:24:58;;;;;;;4.68;2.45;;;24.80;96.70;;;;;;4961148;28;20047;-80
2022/06/20 01:27:34;;;;;;;5.50;2.70;;;24.80;96.70;;;;;;4950183;28;20062;-80
2022/06/20 01:30:03;;;;;;;3.93;2.63;;;24.80;96.70;;;;;;4952943;28;20130;-80
2022/06/20 01:32:31;;;;;;;4.82;3.00;;;24.80;96.70;;;;;;4951800;28;20893;-79
2022/06/20 01:35:02;;;;;;;4.15;2.63;;;24.70;96.70;;;;;;4969436;28;20413;-80
2022/06/20 01:37:35;;;;;;;4.07;2.83;;;24.70;96.70;;;;;;4945865;28;20054;-79
2022/06/20 01:40:07;;;;;;;3.88;2.70;;;24.90;96.70;;;;;;4967649;28;20519;-79
2022/06/20 01:42:38;;;;;;;3.83;2.65;;;24.90;96.70;;;;;;4954049;28;20129;-79
2022/06/20 01:45:57;;;;;;;3.97;2.58;;;24.90;96.70;;;;;;4967581;28;20045;-80
2022/06/20 01:48:02;;;;;;;3.53;2.13;;;24.90;96.70;;;;;;4965058;28;20043;-79
2022/06/20 01:50:32;;;;;;;3.97;2.20;;;24.90;96.70;;;;;;4961789;28;20066;-80
2022/06/20 01:53:03;;;;;;;3.78;2.10;;;24.80;96.70;;;;;;4948192;28;20058;-79
2022/06/20 01:55:33;;;;;;;2.72;2.28;;;24.80;96.70;;;;;;4948298;28;20042;-80
2022/06/20 01:58:09;;;;;;;6.55;2.25;;;24.70;96.70;;;;;;4965852;28;20125;-79
2022/06/20 02:00:38;;;;;;;5.30;2.30;;;24.70;96.70;;;;;;4960453;28;20043;-80
2022/06/20 02:03:08;;;;;;;5.50;2.63;;;24.70;96.70;;;;;;4949841;28;20047;-80
2022/06/20 02:05:37;;;;;;;3.15;2.25;;;24.60;96.70;;;;;;4965081;28;20081;-80
2022/06/20 02:08:07;;;;;;;2.85;2.20;;;24.60;96.70;;;;;;4946123;28;20050;-79
2022/06/20 02:10:42;;;;;;;2.58;2.35;;;24.60;96.70;;;;;;4963785;28;20674;-79
2022/06/20 02:13:14;;;;;;;3.97;2.40;;;24.50;96.70;;;;;;4957371;28;20582;-80
2022/06/20 02:15:44;;;;;;;3.70;2.28;;;24.40;96.70;;;;;;4964164;28;20046;-80
2022/06/20 02:18:14;;;;;;;4.85;2.33;;;24.40;96.70;;;;;;4963501;28;20054;-80
2022/06/20 02:20:47;;;;;;;2.75;2.17;;;24.40;96.70;;;;;;4947989;28;20740;-80
2022/06/20 02:23:18;;;;;;;6.03;2.22;;;24.40;96.70;;;;;;4948048;28;20523;-80
2022/06/20 02:25:49;;;;;;;2.35;2.15;;;24.40;96.70;;;;;;4954794;28;20090;-80
2022/06/20 02:28:25;;;;;;;4.20;2.30;;;24.40;96.70;;;;;;4970513;28;20041;-80
2022/06/20 02:30:53;;;;;;;5.57;2.50;;;24.50;96.70;;;;;;4958719;28;20055;-80
2022/06/20 02:33:26;;;;;;;3.78;2.55;;;24.50;96.70;;;;;;4965883;28;20043;-79
2022/06/20 02:35:55;;;;;;;6.20;2.63;;;24.60;96.70;;;;;;4960270;28;20091;-80
2022/06/20 02:38:24;;;;;;;2.50;2.30;;;24.50;96.70;;;;;;4951113;28;20526;-80
2022/06/20 02:40:55;;;;;;;4.53;1.95;;;24.40;96.70;;;;;;4969340;28;20049;-80
2022/06/20 02:43:31;;;;;;;4.40;2.35;;;24.30;96.70;;;;;;4952443;28;20512;-80
2022/06/20 02:46:00;;;;;;;6.13;2.47;;;24.30;96.70;;;;;;4975840;28;20043;-80
2022/06/20 02:48:31;;;;;;;2.97;2.22;;;24.20;96.70;;;;;;4970619;28;20515;-80
2022/06/20 02:51:06;;;;;;;3.83;2.53;;;24.10;96.70;;;;;;4957945;28;20137;-80
2022/06/20 02:53:39;;;;;;;5.10;2.38;;;24.00;96.70;;;;;;4950411;28;20078;-79
2022/06/20 02:56:12;;;;;;;3.72;2.50;;;24.10;96.70;;;;;;4955321;28;20046;-80
2022/06/20 02:58:44;;;;;;;2.78;2.40;;;24.00;96.70;;;;;;4969269;28;20111;-80
2022/06/20 03:01:16;;;;;;;5.97;2.60;;;24.00;96.70;;;;;;4977001;28;20101;-80
2022/06/20 03:03:48;;;;;;;5.63;2.63;;;23.90;96.70;;;;;;4972017;28;20054;-80
2022/06/20 03:06:23;;;;;;;3.42;2.25;;;24.00;96.70;;;;;;4959318;28;20083;-79
2022/06/20 03:08:52;;;;;;;4.20;2.72;;;24.10;96.70;;;;;;4972252;28;20568;-80
2022/06/20 03:11:20;;;;;;;4.05;2.63;;;24.00;96.70;;;;;;4949774;28;20049;-79
2022/06/20 03:13:51;;;;;;;4.22;2.83;;;23.80;96.70;;;;;;4963582;28;20690;-79
2022/06/20 03:16:21;;;;;;;4.95;2.47;;;23.80;96.70;;;;;;4967033;28;20062;-79
2022/06/20 03:18:50;;;;;;;3.95;2.78;;;23.80;96.70;;;;;;4965483;28;20049;-79
2022/06/20 03:21:22;;;;;;;3.10;2.20;;;23.80;96.70;;;;;;4950440;28;20551;-79
2022/06/20 03:23:51;;;;;;;3.75;2.50;;;23.80;96.70;;;;;;4964095;28;20066;-80
2022/06/20 03:26:23;;;;;;;4.60;2.53;;;23.90;96.70;;;;;;4967400;28;20057;-79
2022/06/20 03:28:54;;;;;;;2.83;2.10;;;23.90;96.70;;;;;;4951164;28;20075;-79
2022/06/20 03:31:23;;;;;;;4.80;2.20;;;23.90;96.70;;;;;;4954286;28;20074;-80
2022/06/20 03:33:51;;;;;;;2.50;2.30;;;23.80;96.70;;;;;;4953541;28;20042;-81
2022/06/20 03:36:22;;;;;;;2.97;2.22;;;23.70;96.70;;;;;;4952463;28;21527;-80
2022/06/20 03:38:51;;;;;;;3.53;2.00;;;23.70;96.70;;;;;;4966612;28;20051;-80
2022/06/20 03:41:23;;;;;;;4.10;2.00;;;23.70;96.70;;;;;;4962298;28;20050;-80
2022/06/20 03:43:57;;;;;;;3.90;2.45;;;23.60;96.70;;;;;;4949656;28;20058;-80
2022/06/20 03:46:29;;;;;;;3.60;1.77;;;23.70;96.70;;;;;;4951550;28;20500;-80
2022/06/20 03:49:04;;;;;;;2.85;2.20;;;23.80;96.70;;;;;;4967262;28;20050;-80
2022/06/20 03:51:38;;;;;;;2.90;2.22;;;23.80;96.70;;;;;;4952643;28;20149;-79
2022/06/20 03:54:11;;;;;;;3.03;2.00;;;23.80;96.70;;;;;;4958765;28;20511;-80
2022/06/20 03:56:52;;;;;;;6.72;2.00;;;23.70;96.70;;;;;;4962570;28;20511;-79
2022/06/20 03:59:25;;;;;;;3.85;2.13;;;23.50;96.70;;;;;;4956527;28;20105;-80
2022/06/20 04:01:59;;;;;;;2.92;1.85;;;23.50;96.70;;;;;;4959097;28;20515;-79
2022/06/20 04:04:31;;;;;;;3.88;2.50;;;23.60;96.70;;;;;;4956369;28;20046;-79
2022/06/20 04:07:03;;;;;;;4.13;2.40;;;23.60;96.70;;;;;;4968477;28;20093;-78
2022/06/20 04:12:28;;;;;;;4.55;2.55;;;23.60;96.70;;;;;;4966437;28;20499;-83
2022/06/20 04:15:01;;;;;;;7.28;3.10;;;23.40;96.70;;;;;;4952373;28;20545;-84
2022/06/20 04:20:28;;;;;;;4.00;2.72;;;23.60;96.70;;;;;;4973713;28;20059;-78
2022/06/20 04:22:58;;;;;;;5.38;2.88;;;23.60;96.70;;;;;;4950509;28;20145;-78
2022/06/20 04:25:34;;;;;;;7.10;3.10;;;23.60;96.70;;;;;;4968581;28;20078;-77
2022/06/20 04:28:09;;;;;;;4.78;2.60;;;23.60;96.70;;;;;;4963720;28;20134;-77
2022/06/20 04:30:43;;;;;;;4.13;2.55;;;23.70;96.70;;;;;;4948149;28;20053;-77
2022/06/20 04:33:16;;;;;;;5.03;2.75;;;23.80;96.70;;;;;;4949330;28;20126;-77
2022/06/20 04:35:58;;;;;;;4.25;2.85;;;23.70;96.70;;;;;;4974697;28;20500;-77
2022/06/20 04:38:32;;;;;;;3.95;2.50;;;23.70;96.70;;;;;;4967411;28;20046;-77
2022/06/20 04:41:03;;;;;;;6.28;2.83;;;23.60;96.70;;;;;;4973977;28;20058;-76
2022/06/20 04:43:37;;;;;;;5.45;2.58;;;23.60;96.70;;;;;;4951416;28;20409;-76
2022/06/20 04:46:18;;;;;;;5.20;2.75;;;23.60;96.70;;;;;;4965945;28;20474;-76
2022/06/20 04:48:47;;;;;;;5.03;2.97;;;23.50;96.70;;;;;;4954127;28;20141;-76
2022/06/20 04:51:19;;;;;;;3.75;2.58;;;23.60;96.70;;;;;;4964673;28;20051;-76
2022/06/20 04:53:49;;;;;;;3.15;2.60;;;23.50;96.70;;;;;;4964514;28;20121;-76
2022/06/20 04:56:26;;;;;;;3.03;2.65;;;23.50;96.70;;;;;;4977393;28;20133;-76
2022/06/20 04:59:00;;;;;;;3.55;2.97;;;23.60;96.70;;;;;;4974019;28;20137;-77
2022/06/20 05:01:33;;;;;;;5.10;2.80;;;23.60;96.70;;;;;;4950006;28;20105;-77
2022/06/20 05:04:07;;;;;;;4.00;2.90;;;23.70;96.70;;;;;;4970946;28;20050;-77
2022/06/20 05:06:37;;;;;;;3.60;2.47;;;23.60;96.70;;;;;;4952213;28;20055;-77
2022/06/20 05:09:11;;;;;;;3.47;2.70;;;23.50;96.70;;;;;;4967575;28;20082;-74
2022/06/20 05:11:44;;;;;;;3.00;2.67;;;23.60;96.70;;;;;;4972618;28;20042;-74
2022/06/20 05:14:17;;;;;;;6.07;2.92;;;23.70;96.70;;;;;;4974337;28;20126;-74
2022/06/20 05:16:55;;;;;;;5.97;2.60;;;23.70;96.70;;;;;;4967576;28;20062;-75
2022/06/20 05:19:27;;;;;;;4.50;2.60;;;23.90;96.70;;;;;;4967868;28;20050;-77
2022/06/20 05:22:00;;;;;;;6.30;2.90;;;23.90;96.70;;;;;;4967915;28;20047;-77
2022/06/20 05:24:32;;;;;;;6.90;2.88;;;23.90;96.70;;;;;;4975018;28;20050;-77
2022/06/20 05:27:07;;;;;;;3.78;2.38;;;23.90;96.70;;;;;;4971719;28;20488;-74
2022/06/20 05:29:37;;;;;;;3.50;2.45;;;23.90;96.70;;;;;;4968567;28;20575;-75
2022/06/20 05:32:11;;;;;;;3.42;2.58;;;23.90;96.70;;;;;;4966411;28;20050;-74
2022/06/20 05:34:47;;;;;;;3.53;2.67;;;24.00;96.70;;;;;;4972394;28;20173;-74
2022/06/20 05:37:26;;;;;;;4.47;3.13;;;24.00;96.70;;;;;;4968328;28;20058;-75
2022/06/20 05:39:58;;;;;;;4.45;2.83;;;24.00;96.70;;;;;;4964580;28;20077;-75
2022/06/20 05:42:26;;;;;;;5.88;3.33;;;24.00;96.70;;;;;;4969526;28;20505;-75
2022/06/20 05:44:54;;;;;;;7.38;3.70;;;23.90;96.70;;;;;;4971868;28;20039;-75
2022/06/20 05:47:26;;;;;;;4.25;2.65;;;23.90;96.70;;;;;;4951595;28;20042;-75
2022/06/20 05:50:01;;;;;;;7.90;3.03;;;24.00;96.70;;;;;;4969581;28;20039;-77
2022/06/20 05:52:30;;;;;;;3.65;2.92;;;24.10;96.70;;;;;;4965580;28;20624;-77
2022/06/20 05:55:03;;;;;;;3.97;2.83;;;24.10;96.70;;;;;;4966897;28;20051;-78
2022/06/20 05:57:33;;;;;;;3.85;2.60;;;24.20;96.70;;;;;;4948474;28;20042;-77
2022/06/20 06:00:06;;;;;;;5.13;2.92;;;24.00;96.70;;;;;;4963863;28;20138;-77
2022/06/20 06:02:44;;;;;;;4.90;2.30;;;24.10;96.70;;;;;;4965927;28;20113;-76
2022/06/20 06:05:17;;;;;;;8.07;2.80;;;24.20;96.70;;;;;;4954589;28;20043;-76
2022/06/20 06:07:50;;;;;;;4.03;2.55;;;24.30;96.70;;;;;;4968193;28;20141;-76
2022/06/20 06:10:32;;;;;;;5.88;2.70;;;24.40;96.70;;;;;;4971310;28;20047;-76
2022/06/20 06:13:11;;;;;;;8.98;2.50;;;24.50;96.70;;;;;;4952383;28;20046;-76
2022/06/20 06:16:46;;;;;;;6.10;2.80;;;24.60;96.70;;;;;;4963716;28;20058;-76
2022/06/20 06:18:39;;;;;;;4.68;2.53;;;24.70;96.70;;;;;;4965482;28;20138;-77
2022/06/20 06:21:07;;;;;;;5.50;3.45;;;24.80;96.70;;;;;;4965540;28;20057;-76
2022/06/20 06:23:35;;;;;;;5.97;3.00;;;24.90;96.70;;;;;;4970406;28;20046;-76
2022/06/20 06:26:03;;;;;;;3.58;2.70;;;24.90;96.70;;;;;;4948606;28;20059;-75
2022/06/20 06:28:32;;;;;;;10.77;3.75;;;24.90;96.70;;;;;;4950891;28;20043;-76
2022/06/20 06:31:03;;;;;;;5.10;2.78;;;25.00;96.70;;;;;;4962369;28;20081;-75
2022/06/20 06:33:37;;;;;;;4.97;2.60;;;25.00;96.70;;;;;;4959223;28;20241;-75
2022/06/20 06:36:11;;;;;;;5.53;2.60;;;25.10;96.70;;;;;;4951884;28;20102;-76
2022/06/20 06:38:45;;;;;;;2.97;2.28;;;25.20;96.70;;;;;;4965755;28;20042;-75
2022/06/20 06:41:19;;;;;;;6.28;2.65;;;25.20;96.70;;;;;;4951759;28;20047;-76
2022/06/20 06:43:51;;;;;;;7.32;2.85;;;25.30;96.70;;;;;;4961369;28;20058;-76
2022/06/20 06:46:25;;;;;;;5.65;2.22;;;25.40;96.70;;;;;;4947361;28;20106;-76
2022/06/20 06:49:08;;;;;;;4.65;2.25;;;25.40;96.70;;;;;;4958403;28;20047;-77
2022/06/20 06:51:41;;;;;;;5.43;2.65;;;25.50;96.70;;;;;;4943817;29;20637;-77
2022/06/20 06:54:21;;;;;;;5.53;2.83;;;25.50;96.70;;;;;;4945487;28;20047;-76
2022/06/20 06:56:55;;;;;;;2.72;2.00;;;25.60;96.70;;;;;;4945190;29;20126;-76
2022/06/20 06:59:29;;;;;;;8.30;3.05;;;25.70;96.70;;;;;;4946162;28;20464;-77
2022/06/20 07:02:00;;;;;;;14.98;2.75;;;25.80;96.70;;;;;;4952191;28;20043;-77
2022/06/20 07:04:35;;;;;;;24.20;3.35;;;25.90;96.70;;;;;;4945233;28;20059;-77
2022/06/20 07:07:15;;;;;;;4.07;2.10;;;26.00;96.70;;;;;;4950352;28;20097;-76
2022/06/20 07:09:49;;;;;;;6.32;2.05;;;26.10;96.70;;;;;;4946888;28;20047;-77
2022/06/20 07:12:25;;;;;;;8.57;2.38;;;26.20;96.70;;;;;;4950965;28;20125;-77
2022/06/20 07:15:01;;;;;;;4.25;2.28;;;26.20;96.70;;;;;;4952189;28;20050;-76
2022/06/20 07:17:34;;;;;;;4.63;2.20;;;26.30;96.70;;;;;;4941619;28;20682;-77
2022/06/20 07:20:05;;;;;;;3.42;2.20;;;26.40;96.70;;;;;;4957430;28;20059;-76
2022/06/20 07:22:38;;;;;;;6.70;1.88;;;26.50;96.70;;;;;;4949164;28;20043;-76
2022/06/20 07:25:12;;;;;;;3.70;2.20;;;26.50;96.70;;;;;;4971814;28;20174;-76
2022/06/20 07:27:48;;;;;;;20.90;2.85;;;26.50;96.70;;;;;;4970509;28;20554;-77
2022/06/20 07:30:21;;;;;;;8.77;2.38;;;26.60;96.70;;;;;;4970467;28;20503;-75
2022/06/20 07:32:53;;;;;;;5.00;2.08;;;26.70;96.70;;;;;;4964944;28;20149;-77
2022/06/20 07:35:31;;;;;;;5.20;2.30;;;26.80;96.70;;;;;;4950206;28;20049;-76
2022/06/20 07:38:06;;;;;;;3.38;2.10;;;26.90;96.70;;;;;;4946262;28;20062;-77
2022/06/20 07:40:47;;;;;;;5.10;1.67;;;26.90;96.70;;;;;;4965684;28;20259;-77
2022/06/20 07:43:21;;;;;;;2.30;1.80;;;27.00;96.70;;;;;;4963701;28;20055;-77
2022/06/20 07:45:51;;;;;;;8.05;2.40;;;27.00;96.70;;;;;;4967283;28;20149;-77
2022/06/20 07:48:29;;;;;;;5.78;2.28;;;27.10;96.70;;;;;;4970458;28;20082;-76
2022/06/20 07:51:06;;;;;;;6.82;2.20;;;27.10;96.70;;;;;;4964125;28;20047;-76
2022/06/20 07:53:38;;;;;;;3.97;2.33;;;27.30;96.70;;;;;;4950287;28;20043;-76
2022/06/20 07:56:10;;;;;;;5.05;2.10;;;27.30;96.70;;;;;;4954688;28;20136;-77
2022/06/20 07:58:43;;;;;;;6.90;2.20;;;27.40;96.70;;;;;;4957516;28;20065;-77
2022/06/20 08:01:19;;;;;;;6.35;2.85;;;27.40;96.70;;;;;;4969341;28;20158;-78
2022/06/20 08:03:53;;;;;;;7.38;2.70;;;27.50;96.70;;;;;;4974428;28;20109;-78
2022/06/20 08:06:31;;;;;;;4.13;3.05;;;27.40;96.70;;;;;;4968563;28;20447;-78
2022/06/20 08:09:03;;;;;;;5.32;2.40;;;27.40;96.70;;;;;;4954076;28;20416;-78
2022/06/20 08:11:40;;;;;;;4.28;2.75;;;27.40;96.70;;;;;;4968600;28;20089;-78
2022/06/20 08:14:16;;;;;;;5.82;2.30;;;27.50;96.70;;;;;;4969470;28;20093;-78
2022/06/20 08:16:47;;;;;;;4.35;2.45;;;27.50;96.70;;;;;;4970959;28;20161;-78
2022/06/20 08:19:15;;;;;;;2.72;2.45;;;27.60;96.70;;;;;;4971362;28;20083;-77
2022/06/20 08:21:54;;;;;;;3.25;2.15;;;27.60;96.70;;;;;;4966455;28;20053;-77
2022/06/20 08:24:28;;;;;;;4.30;1.73;;;27.60;96.70;;;;;;4965603;28;20055;-77
2022/06/20 08:27:02;;;;;;;3.78;1.98;;;27.70;96.70;;;;;;4966698;28;20059;-77
2022/06/20 08:29:36;;;;;;;3.70;2.10;;;27.70;96.70;;;;;;4951881;28;20420;-76
2022/06/20 08:32:11;;;;;;;4.57;1.85;;;27.80;96.70;;;;;;4966625;28;20051;-77
2022/06/20 08:34:44;;;;;;;4.03;1.70;;;27.80;96.70;;;;;;4963141;28;20054;-77
2022/06/20 08:37:22;;;;;;;3.83;1.70;;;27.90;96.70;;;;;;4973122;28;20050;-77
2022/06/20 08:39:58;;;;;;;4.47;1.73;;;28.00;96.70;;;;;;4966431;28;20042;-76
2022/06/20 08:43:08;;;;;;;4.65;2.22;;;28.00;96.70;;;;;;4973973;28;20043;-77
2022/06/20 08:46:17;;;;;;;7.53;1.90;;;28.10;96.70;;;;;;4926859;28;20051;-77
2022/06/20 08:49:26;;;;;;;3.20;1.58;;;28.10;96.70;;;;;;4966576;28;20133;-77
2022/06/20 08:52:25;;;;;;;6.30;2.10;;;28.10;96.70;;;;;;4961937;28;20059;-79
2022/06/20 08:55:21;;;;;;;4.00;2.17;;;28.10;96.70;;;;;;4962764;28;20133;-81
2022/06/20 08:57:59;;;;;;;3.53;1.73;;;28.20;96.70;;;;;;4968330;28;20042;-80
2022/06/20 09:00:44;;;;;;;2.33;1.77;;;28.30;96.70;;;;;;4970259;28;20058;-80
2022/06/20 09:03:39;;;;;;;3.63;1.85;;;28.40;96.70;;;;;;4951257;28;20073;-78
2022/06/20 09:06:24;;;;;;;4.07;1.98;;;28.50;96.70;;;;;;4955197;28;20146;-80
2022/06/20 09:09:20;;;;;;;3.85;1.73;;;28.50;96.70;;;;;;4950042;28;20424;-81
2022/06/20 09:12:05;;;;;;;1.90;1.50;;;28.60;96.70;;;;;;4914328;28;20058;-77
2022/06/20 09:15:01;;;;;;;2.65;1.70;;;28.70;96.70;;;;;;4966427;28;20063;-77
2022/06/20 09:17:40;;;;;;;3.20;1.83;;;28.80;96.70;;;;;;4967448;28;20440;-77
2022/06/20 09:20:21;;;;;;;3.58;1.77;;;28.80;96.70;;;;;;4952360;28;20513;-77
2022/06/20 09:23:11;;;;;;;4.47;1.65;;;28.90;96.70;;;;;;4967416;28;20046;-77
2022/06/20 09:25:54;;;;;;;3.95;1.70;;;28.90;96.70;;;;;;4953717;28;20046;-77
2022/06/20 09:28:53;;;;;;;3.13;1.48;;;29.00;96.70;;;;;;4949485;28;20081;-77
2022/06/20 09:31:46;;;;;;;2.47;1.58;;;29.10;95.70;;;;;;4964734;28;20065;-76
2022/06/20 09:34:39;;;;;;;1.85;1.40;;;29.10;94.50;;;;;;4968931;28;20117;-77
2022/06/20 09:37:37;;;;;;;4.85;1.77;;;29.10;95.20;;;;;;4950898;28;20057;-77
2022/06/20 09:40:09;;;;;;;;;;;29.10;95.30;;;;;;4968115;28;20085;-77
2022/06/20 09:42:49;;;;;;;3.35;1.55;;;29.20;95.80;;;;;;4955650;28;19948;-77
2022/06/20 09:45:31;;;;;;;1.80;1.30;;;29.20;94.80;;;;;;4944545;28;20130;-77
2022/06/20 09:48:11;;;;;;;8.13;1.83;;;29.30;95.20;;;;;;4964826;28;20067;-77
2022/06/20 09:50:52;;;;;;;2.67;1.40;;;29.40;95.10;;;;;;4948514;28;20120;-77
2022/06/20 09:53:35;;;;;;;4.20;1.40;;;29.40;95.20;;;;;;4968474;28;20047;-78
2022/06/20 09:56:14;;;;;;;2.53;1.30;;;29.40;94.70;;;;;;4948066;28;20061;-77
2022/06/20 09:58:51;;;;;;;1.92;1.65;;;29.60;95.40;;;;;;4964352;28;20066;-77
2022/06/20 10:01:28;;;;;;;2.60;1.20;;;29.70;94.60;;;;;;4965545;28;20054;-77
2022/06/20 10:04:12;;;;;;;2.70;1.40;;;29.80;93.70;;;;;;4966540;28;20493;-76
2022/06/20 10:06:50;;;;;;;3.72;1.65;;;29.80;93.10;;;;;;4951125;28;20054;-77
2022/06/20 10:09:27;;;;;;;4.10;1.35;;;29.90;93.40;;;;;;4967796;28;20094;-77
2022/06/20 10:12:00;;;;;;;;;;;29.90;92.40;;;;;;4952675;28;20043;-77
2022/06/20 10:14:36;;;;;;;3.95;1.27;;;30.00;91.10;;;;;;4962979;28;19969;-77
2022/06/20 10:17:16;;;;;;;3.08;1.30;;;30.20;90.70;;;;;;4968180;28;20046;-77
2022/06/20 10:19:51;;;;;;;6.55;1.80;;;30.30;90.90;;;;;;4967413;28;20072;-78
2022/06/20 10:22:30;;;;;;;1.75;0.95;;;30.40;89.90;;;;;;4964250;28;20134;-77
2022/06/20 10:25:16;;;;;;;3.85;1.15;;;30.40;90.00;;;;;;4950083;28;20149;-77
2022/06/20 10:28:12;;;;;;;4.65;1.08;;;30.50;90.20;;;;;;4961199;28;20058;-77
2022/06/20 10:30:49;;;;;;;2.25;1.33;;;30.40;90.20;;;;;;4967081;28;20138;-77
2022/06/20 10:33:37;;;;;;;3.40;1.20;;;30.50;90.70;;;;;;4965577;28;20342;-78
2022/06/20 10:36:18;;;;;;;2.17;0.98;;;30.80;89.10;;;;;;4969402;28;20054;-77
2022/06/20 10:39:03;;;;;;;2.92;1.15;;;30.90;89.30;;;;;;4960032;28;20101;-77
2022/06/20 10:41:37;;;;;;;4.45;1.20;;;30.90;88.40;;;;;;4966023;28;20082;-77
2022/06/20 10:44:33;;;;;;;2.92;1.27;;;31.00;88.70;;;;;;4950970;28;20046;-77
2022/06/20 10:47:08;;;;;;;2.38;1.35;;;31.10;88.30;;;;;;4965786;28;20050;-77
2022/06/20 10:50:04;;;;;;;3.83;1.20;;;31.20;88.00;;;;;;4965211;28;20047;-77
2022/06/20 10:52:48;;;;;;;4.30;1.30;;;31.20;87.20;;;;;;4964377;28;20053;-77
2022/06/20 10:55:29;;;;;;;2.10;1.23;;;31.30;87.50;;;;;;4970374;28;20051;-79
2022/06/20 10:58:10;;;;;;;5.00;1.20;;;31.40;87.00;;;;;;4955817;28;20522;-79
2022/06/20 11:00:43;;;;;;;2.08;1.10;;;31.40;87.20;;;;;;4951716;28;20057;-78
2022/06/20 11:03:44;;;;;;;1.58;1.10;;;31.50;86.70;;;;;;4950795;28;20170;-79
2022/06/20 11:06:22;;;;;;;4.25;1.33;;;31.60;86.10;;;;;;4975652;28;20423;-80
2022/06/20 11:09:00;;;;;;;2.55;1.30;;;31.50;85.10;;;;;;4970489;28;20051;-79
2022/06/20 11:11:42;;;;;;;1.55;1.13;;;31.50;85.60;;;;;;4968404;28;20142;-79
2022/06/20 11:14:21;;;;;;;5.47;1.13;;;31.60;85.50;;;;;;4969053;28;20043;-79
2022/06/20 11:17:01;;;;;;;5.32;1.20;;;31.60;85.10;;;;;;4957822;28;20097;-79
2022/06/20 11:19:40;;;;;;;3.25;1.20;;;31.70;85.50;;;;;;4973111;28;20109;-79
2022/06/20 11:22:25;;;;;;;5.43;1.42;;;31.70;85.80;;;;;;4963569;28;20058;-79
2022/06/20 11:25:02;;;;;;;2.78;1.20;;;31.80;86.20;;;;;;4973941;28;20046;-79
2022/06/20 11:27:56;;;;;;;3.03;1.30;;;32.00;85.50;;;;;;4963034;28;20110;-80
2022/06/20 11:30:31;;;;;;;2.35;1.23;;;32.00;85.50;;;;;;4953492;28;20058;-79
2022/06/20 11:33:23;;;;;;;2.05;1.40;;;32.10;85.70;;;;;;4948836;29;20080;-79
2022/06/20 11:35:57;;;;;;;1.55;1.02;;;32.10;85.50;;;;;;4948363;28;20043;-79
2022/06/20 11:38:41;;;;;;;1.77;1.45;;;32.10;85.50;;;;;;4947441;28;20047;-79
2022/06/20 11:41:14;;;;;;;3.38;1.58;;;32.20;85.90;;;;;;4943678;29;20043;-80
2022/06/20 11:44:14;;;;;;;2.72;1.38;;;32.20;86.50;;;;;;4960781;28;20051;-79
2022/06/20 11:47:12;;;;;;;3.03;1.45;;;32.20;87.40;;;;;;4952896;28;20126;-79
2022/06/20 11:50:07;;;;;;;3.35;1.75;;;32.40;86.60;;;;;;4954727;28;20090;-80
2022/06/20 11:52:47;;;;;;;2.05;1.38;;;32.40;86.60;;;;;;4905770;28;20055;-80
2022/06/20 11:55:28;;;;;;;1.83;1.40;;;32.30;86.40;;;;;;4963553;28;20067;-80
2022/06/20 11:58:12;;;;;;;2.78;1.88;;;32.30;87.50;;;;;;4952509;28;20078;-80
2022/06/20 12:00:47;;;;;;;2.22;1.48;;;32.30;88.50;;;;;;4944907;28;20059;-79
2022/06/20 12:03:26;;;;;;;3.50;1.42;;;32.50;87.90;;;;;;4944180;29;20047;-79
2022/06/20 12:06:05;;;;;;;3.38;1.45;;;32.70;88.20;;;;;;4943833;28;20046;-79
2022/06/20 12:08:43;;;;;;;3.13;1.40;;;32.80;88.00;;;;;;4955474;28;20580;-79
2022/06/20 12:11:41;;;;;;;4.25;1.58;;;32.70;88.50;;;;;;4948663;28;20552;-79
2022/06/20 12:14:22;;;;;;;3.33;1.42;;;32.70;90.00;;;;;;4963431;28;20436;-79
2022/06/20 12:17:00;;;;;;;3.75;1.45;;;32.80;90.10;;;;;;4950384;28;20047;-78
2022/06/20 12:25:30;;;;;;;3.10;1.98;;;32.60;89.80;;;;;;4952528;28;20047;-79
2022/06/20 12:28:01;;;;;;;4.95;2.25;;;32.70;89.50;;;;;;4950471;28;20043;-80
2022/06/20 12:30:32;;;;;;;4.38;2.00;;;32.80;89.60;;;;;;4945630;28;20105;-78
2022/06/20 12:33:01;;;;;;;2.50;1.55;;;33.00;89.40;;;;;;4962068;28;20448;-80
2022/06/20 12:35:37;;;;;;;3.63;1.58;;;32.90;89.00;;;;;;4950800;28;20043;-78
2022/06/20 12:38:14;;;;;;;2.63;1.70;;;32.90;88.80;;;;;;4963669;28;20078;-79
2022/06/20 12:40:47;;;;;;;4.22;1.83;;;32.80;89.40;;;;;;4966479;28;20055;-79
2022/06/20 12:43:19;;;;;;;3.20;1.80;;;33.10;90.10;;;;;;4947075;28;20054;-79
2022/06/20 12:46:16;;;;;;;3.30;1.50;;;33.20;88.70;;;;;;4968191;28;20055;-79
2022/06/20 12:49:16;;;;;;;2.92;1.90;;;33.10;88.80;;;;;;4963842;28;20051;-79
2022/06/20 12:51:54;;;;;;;5.70;1.98;;;33.20;87.90;;;;;;4951874;28;20058;-80
2022/06/20 12:54:45;;;;;;;3.75;1.85;;;33.20;87.70;;;;;;4947817;28;20122;-79
2022/06/20 12:57:36;;;;;;;4.53;1.83;;;33.20;87.40;;;;;;4943760;28;20071;-80
2022/06/20 13:00:19;;;;;;;3.45;1.67;;;33.30;87.10;;;;;;4965625;28;20682;-79
2022/06/20 13:03:28;;;;;;;4.00;2.10;;;33.40;86.90;;;;;;4960717;28;20126;-82
2022/06/20 13:06:47;;;;;;;3.38;2.03;;;33.50;85.90;;;;;;4943851;28;20450;-79
2022/06/20 13:09:52;;;;;;;3.33;1.60;;;33.80;86.00;;;;;;4946527;28;20121;-82
2022/06/20 13:12:39;;;;;;;2.55;1.60;;;33.70;84.60;;;;;;4910478;28;20046;-80
2022/06/20 13:15:49;;;;;;;4.97;2.00;;;33.80;84.80;;;;;;4946413;28;20051;-80
2022/06/20 13:18:52;;;;;;;3.35;1.65;;;33.80;84.50;;;;;;4932793;28;20344;-79
2022/06/20 13:21:30;;;;;;;2.13;1.42;;;34.10;84.50;;;;;;4945291;29;20075;-78
2022/06/20 13:24:11;;;;;;;2.90;1.83;;;34.20;83.40;;;;;;4961523;28;20079;-79
2022/06/20 13:26:53;;;;;;;2.83;1.58;;;34.10;83.40;;;;;;4950260;28;20055;-79
2022/06/20 13:29:34;;;;;;;2.53;1.75;;;34.10;83.90;;;;;;4954518;28;20062;-78
2022/06/20 13:32:11;;;;;;;4.22;1.60;;;34.30;83.70;;;;;;4942629;28;20054;-79
2022/06/20 13:34:50;;;;;;;4.47;1.65;;;34.30;83.00;;;;;;4950298;28;20047;-79
2022/06/20 13:37:46;;;;;;;4.97;1.85;;;34.30;84.10;;;;;;4948538;28;20051;-78
2022/06/20 13:40:43;;;;;;;3.17;1.75;;;34.40;84.00;;;;;;4961603;28;20505;-78
2022/06/20 13:43:21;;;;;;;3.50;1.80;;;34.40;82.90;;;;;;4953527;28;20058;-79
2022/06/20 13:45:55;;;;;;;2.35;1.92;;;34.50;82.40;;;;;;4946764;28;20054;-79
2022/06/20 13:48:30;;;;;;;2.50;1.50;;;34.70;82.60;;;;;;4963253;28;20059;-79
2022/06/20 13:51:35;;;;;;;3.95;2.38;;;34.70;82.70;;;;;;4950241;28;20496;-79